Time;durP1;ratioP1;P1;durP2;ratioP2;P2;SDS_P1;SDS_P2;PMS_P1;PMS_P2;Temp;Humidity;BMP_temperature;BMP_pressure;BME280_temperature;BME280_humidity;BME280_pressure;Samples;Min_cycle;Max_cycle;Signal;HPM_P1;HPM_P2
2022/07/27 00:02:26;;;;;;;4.93;1.80;;;19.80;1.00;;;;;;7364742;19;20094;-70
2022/07/27 00:04:56;;;;;;;5.20;2.10;;;19.80;1.00;;;;;;7360837;19;20353;-69
2022/07/27 00:07:26;;;;;;;2.63;1.80;;;19.80;1.00;;;;;;7365476;19;20014;-69
2022/07/27 00:10:02;;;;;;;6.20;1.60;;;19.80;1.00;;;;;;7365846;19;20007;-69
2022/07/27 00:12:34;;;;;;;3.83;2.13;;;19.60;1.00;;;;;;7362714;19;20003;-70
2022/07/27 00:15:05;;;;;;;5.75;2.10;;;19.60;1.00;;;;;;7380791;19;20070;-69
2022/07/27 00:17:35;;;;;;;2.65;2.03;;;19.70;1.00;;;;;;7363685;19;20060;-69
2022/07/27 00:20:05;;;;;;;5.28;2.42;;;19.70;1.00;;;;;;7363709;19;20082;-69
2022/07/27 00:22:35;;;;;;;4.85;2.13;;;19.70;1.00;;;;;;7362341;19;20031;-69
2022/07/27 00:25:06;;;;;;;2.90;2.30;;;19.60;1.00;;;;;;7359737;19;20017;-69
2022/07/27 00:27:38;;;;;;;5.22;2.53;;;19.60;1.00;;;;;;7364624;19;20011;-69
2022/07/27 00:30:10;;;;;;;3.65;2.20;;;19.70;1.00;;;;;;7386321;19;20014;-71
2022/07/27 00:32:42;;;;;;;4.55;2.30;;;19.80;1.00;;;;;;7362541;19;20037;-70
2022/07/27 00:35:12;;;;;;;4.00;2.38;;;19.80;1.00;;;;;;7357529;19;20019;-69
2022/07/27 00:37:42;;;;;;;6.00;2.10;;;19.60;1.00;;;;;;7364714;19;20339;-71
2022/07/27 00:40:13;;;;;;;4.20;2.20;;;19.60;1.00;;;;;;7364457;19;20014;-71
2022/07/27 00:42:46;;;;;;;3.17;2.20;;;19.50;1.00;;;;;;7362484;19;20391;-70
2022/07/27 00:45:15;;;;;;;3.22;2.33;;;19.50;1.00;;;;;;7358103;19;20096;-71
2022/07/27 00:47:45;;;;;;;4.78;2.33;;;19.50;1.00;;;;;;7384202;19;20030;-70
2022/07/27 00:50:22;;;;;;;3.65;2.30;;;19.40;1.00;;;;;;7360832;19;20522;-69
2022/07/27 00:52:53;;;;;;;5.13;2.20;;;19.40;1.00;;;;;;7362080;19;20025;-70
2022/07/27 00:55:23;;;;;;;4.40;2.20;;;19.40;1.00;;;;;;7358447;19;20011;-70
2022/07/27 00:57:55;;;;;;;3.65;2.28;;;19.40;1.00;;;;;;7363846;19;20520;-70
2022/07/27 01:00:28;;;;;;;2.45;2.25;;;19.40;1.00;;;;;;7364326;19;20029;-71
2022/07/27 01:03:02;;;;;;;3.83;2.33;;;19.50;1.00;;;;;;7384875;19;20015;-70
2022/07/27 01:05:39;;;;;;;2.67;2.35;;;19.50;1.00;;;;;;7358392;19;20017;-70
2022/07/27 01:08:14;;;;;;;4.63;2.40;;;19.50;1.00;;;;;;7363531;19;20002;-70
2022/07/27 01:10:44;;;;;;;6.47;2.55;;;19.50;1.00;;;;;;7364022;19;20031;-68
2022/07/27 01:13:17;;;;;;;4.05;2.30;;;19.50;1.00;;;;;;7363243;19;20007;-69
2022/07/27 01:15:47;;;;;;;3.70;2.50;;;19.50;1.00;;;;;;7359015;19;20070;-69
2022/07/27 01:18:29;;;;;;;4.97;2.60;;;19.60;1.00;;;;;;7364799;19;20019;-71
2022/07/27 01:21:00;;;;;;;3.55;2.47;;;19.50;1.00;;;;;;7382255;19;20033;-70
2022/07/27 01:23:35;;;;;;;3.72;2.60;;;19.60;1.00;;;;;;7362175;19;20014;-70
2022/07/27 01:26:07;;;;;;;6.73;2.37;;;19.60;1.00;;;;;;7360069;19;20531;-69
2022/07/27 01:28:36;;;;;;;2.95;2.50;;;19.50;1.00;;;;;;7364374;19;20006;-71
2022/07/27 01:31:06;;;;;;;2.80;2.50;;;19.60;1.00;;;;;;7359932;19;20016;-70
2022/07/27 01:33:36;;;;;;;4.85;2.83;;;19.40;1.00;;;;;;7360321;19;20018;-69
2022/07/27 01:36:07;;;;;;;3.97;2.53;;;19.30;1.00;;;;;;7381865;19;20054;-70
2022/07/27 01:38:39;;;;;;;5.40;2.42;;;19.30;1.00;;;;;;7363929;19;20015;-70
2022/07/27 01:41:09;;;;;;;6.43;2.95;;;19.30;1.00;;;;;;7360013;19;20056;-70
2022/07/27 01:43:39;;;;;;;2.97;2.40;;;19.20;1.00;;;;;;7360721;19;20017;-69
2022/07/27 01:46:09;;;;;;;6.30;2.72;;;19.10;1.00;;;;;;7359513;19;20377;-69
2022/07/27 01:48:39;;;;;;;4.57;2.58;;;19.10;1.00;;;;;;7362991;19;20496;-70
2022/07/27 01:51:09;;;;;;;5.40;2.67;;;18.90;1.00;;;;;;7383534;19;20038;-69
2022/07/27 01:53:42;;;;;;;3.13;2.60;;;18.90;1.00;;;;;;7361444;19;20475;-69
2022/07/27 01:56:12;;;;;;;2.47;2.28;;;18.90;1.00;;;;;;7360495;19;20014;-69
2022/07/27 01:58:43;;;;;;;3.10;2.40;;;18.90;1.00;;;;;;7364487;19;20016;-69
2022/07/27 02:01:13;;;;;;;5.53;2.72;;;18.80;1.00;;;;;;7365110;19;21194;-69
2022/07/27 02:03:43;;;;;;;3.88;2.60;;;18.70;1.00;;;;;;7366543;19;20025;-69
2022/07/27 02:06:13;;;;;;;4.93;2.60;;;18.80;1.00;;;;;;7368269;19;20011;-69
2022/07/27 02:08:45;;;;;;;3.42;2.50;;;18.80;1.00;;;;;;7391807;19;20020;-70
2022/07/27 02:14:09;;;;;;;3.30;2.53;;;18.60;1.00;;;;;;7362955;19;20367;-69
2022/07/27 02:16:39;;;;;;;6.30;3.20;;;18.50;1.00;;;;;;7369927;19;20100;-69
2022/07/27 02:19:09;;;;;;;4.15;2.85;;;18.50;1.00;;;;;;7369872;19;20044;-70
2022/07/27 02:21:40;;;;;;;3.30;2.60;;;18.50;1.00;;;;;;7369181;19;20010;-70
2022/07/27 02:24:13;;;;;;;5.20;2.60;;;18.40;1.00;;;;;;7386650;19;20345;-70
2022/07/27 02:26:43;;;;;;;5.10;2.80;;;18.40;1.00;;;;;;7369079;19;20027;-70
2022/07/27 02:29:13;;;;;;;4.20;3.00;;;18.30;1.00;;;;;;7368983;19;20009;-70
2022/07/27 02:31:43;;;;;;;3.55;2.65;;;18.30;1.00;;;;;;7367521;19;20002;-70
2022/07/27 02:34:13;;;;;;;4.65;2.80;;;18.30;1.00;;;;;;7364658;19;20350;-70
2022/07/27 02:36:43;;;;;;;2.50;2.30;;;18.30;1.00;;;;;;7370638;19;20105;-70
2022/07/27 02:39:16;;;;;;;5.80;3.08;;;18.20;1.00;;;;;;7384087;19;20022;-71
2022/07/27 02:41:48;;;;;;;3.80;2.83;;;18.20;1.00;;;;;;7390173;19;20086;-70
2022/07/27 02:44:20;;;;;;;5.38;3.25;;;18.10;1.00;;;;;;7362966;19;20094;-69
2022/07/27 02:46:50;;;;;;;5.55;3.05;;;18.00;1.00;;;;;;7367933;19;20486;-70
2022/07/27 02:49:24;;;;;;;4.90;3.35;;;18.00;1.00;;;;;;7369880;19;20006;-70
2022/07/27 02:51:55;;;;;;;3.65;3.10;;;17.90;1.00;;;;;;7368214;19;20482;-70
2022/07/27 02:54:31;;;;;;;7.47;3.45;;;17.90;1.00;;;;;;7363543;19;20082;-70
2022/07/27 02:57:03;;;;;;;4.97;3.35;;;17.80;1.00;;;;;;7389775;19;20098;-70
2022/07/27 02:59:34;;;;;;;6.55;3.47;;;17.90;1.00;;;;;;7368131;19;20377;-69
2022/07/27 03:02:06;;;;;;;3.88;3.10;;;17.80;1.00;;;;;;7366206;19;20010;-69
2022/07/27 03:04:36;;;;;;;4.53;2.97;;;17.80;1.00;;;;;;7364215;19;20074;-70
2022/07/27 03:07:13;;;;;;;4.50;3.13;;;17.80;1.00;;;;;;7368742;19;20010;-69
2022/07/27 03:09:45;;;;;;;4.43;3.13;;;17.80;1.00;;;;;;7368000;19;20025;-69
2022/07/27 03:12:21;;;;;;;5.00;3.65;;;17.70;1.00;;;;;;7364580;19;20053;-70
2022/07/27 03:14:51;;;;;;;3.25;2.90;;;17.60;1.00;;;;;;7384767;19;20007;-70
2022/07/27 03:17:21;;;;;;;4.88;3.78;;;17.60;1.00;;;;;;7366670;19;20462;-70
2022/07/27 03:19:51;;;;;;;4.50;3.28;;;17.60;1.00;;;;;;7368650;19;20006;-70
2022/07/27 03:22:21;;;;;;;6.43;3.55;;;17.70;1.00;;;;;;7367537;19;20006;-69
2022/07/27 03:24:53;;;;;;;4.88;3.38;;;17.50;1.00;;;;;;7362982;19;20235;-69
2022/07/27 03:27:23;;;;;;;5.57;3.70;;;17.40;1.00;;;;;;7368132;19;20021;-69
2022/07/27 03:29:53;;;;;;;3.55;3.22;;;17.30;1.00;;;;;;7388291;19;20025;-69
2022/07/27 03:32:22;;;;;;;5.30;3.47;;;17.40;1.00;;;;;;7365848;19;20018;-70
2022/07/27 03:34:53;;;;;;;5.60;3.70;;;17.40;1.00;;;;;;7362692;19;20522;-69
2022/07/27 03:37:22;;;;;;;6.05;3.90;;;17.40;1.00;;;;;;7366717;19;20089;-69
2022/07/27 03:39:55;;;;;;;4.07;3.53;;;17.40;1.00;;;;;;7367974;19;20021;-69
2022/07/27 03:42:25;;;;;;;6.45;3.70;;;17.50;1.00;;;;;;7365901;19;20010;-69
2022/07/27 03:44:55;;;;;;;3.90;3.50;;;17.50;1.00;;;;;;7384195;19;20086;-69
2022/07/27 03:47:24;;;;;;;5.13;3.63;;;17.50;1.00;;;;;;7365454;19;20074;-69
2022/07/27 03:49:54;;;;;;;4.75;3.65;;;17.50;1.00;;;;;;7366953;19;20020;-69
2022/07/27 03:52:24;;;;;;;4.20;3.80;;;17.50;1.00;;;;;;7363910;19;20442;-69
2022/07/27 03:54:57;;;;;;;5.03;3.95;;;17.50;1.00;;;;;;7361817;19;20086;-69
2022/07/27 03:57:27;;;;;;;5.70;3.58;;;17.40;1.00;;;;;;7366237;19;20086;-69
2022/07/27 03:59:57;;;;;;;4.47;3.80;;;17.40;1.00;;;;;;7388841;19;20018;-69
2022/07/27 04:02:26;;;;;;;4.78;3.85;;;17.40;1.00;;;;;;7364165;19;20462;-70
2022/07/27 04:04:56;;;;;;;6.63;4.25;;;17.40;1.00;;;;;;7362382;19;20367;-69
2022/07/27 04:07:26;;;;;;;4.57;3.97;;;17.50;1.00;;;;;;7366567;19;20414;-69
2022/07/27 04:09:58;;;;;;;6.18;3.72;;;17.40;1.00;;;;;;7366326;19;20481;-69
2022/07/27 04:12:30;;;;;;;;;;;17.40;1.00;;;;;;7364945;19;20474;-69
2022/07/27 04:15:00;;;;;;;4.97;3.75;;;17.40;1.00;;;;;;7383361;19;19931;-70
2022/07/27 04:17:30;;;;;;;5.80;4.40;;;17.50;1.00;;;;;;7365283;19;20018;-69
2022/07/27 04:20:20;;;;;;;5.88;3.95;;;17.40;1.00;;;;;;7366784;19;20018;-69
2022/07/27 04:22:50;;;;;;;5.97;4.18;;;17.30;1.00;;;;;;7364721;19;20015;-69
2022/07/27 04:25:22;;;;;;;4.25;3.40;;;17.40;1.00;;;;;;7360587;19;20010;-68
2022/07/27 04:27:53;;;;;;;4.25;3.83;;;17.40;1.00;;;;;;7367198;19;20006;-68
2022/07/27 04:30:23;;;;;;;6.72;4.28;;;17.40;1.00;;;;;;7364784;19;20018;-68
2022/07/27 04:32:54;;;;;;;6.57;4.13;;;17.40;1.00;;;;;;7385341;19;20121;-68
2022/07/27 04:35:24;;;;;;;6.60;3.63;;;17.50;1.00;;;;;;7360789;19;20581;-68
2022/07/27 04:37:55;;;;;;;5.55;3.78;;;17.50;1.00;;;;;;7365888;19;20006;-69
2022/07/27 04:40:33;;;;;;;5.65;4.00;;;17.60;1.00;;;;;;7365925;19;20498;-69
2022/07/27 04:43:04;;;;;;;7.43;3.80;;;17.60;1.00;;;;;;7363578;19;20014;-69
2022/07/27 04:45:36;;;;;;;8.00;4.25;;;17.60;1.00;;;;;;7360098;19;20109;-69
2022/07/27 04:48:07;;;;;;;7.15;4.18;;;17.60;1.00;;;;;;7388085;19;20537;-69
2022/07/27 04:50:44;;;;;;;7.47;4.60;;;17.60;1.00;;;;;;7364251;19;20090;-69
2022/07/27 04:53:15;;;;;;;5.63;3.95;;;17.70;1.00;;;;;;7362463;19;20482;-69
2022/07/27 04:55:48;;;;;;;6.45;4.35;;;17.70;1.00;;;;;;7359235;19;20487;-69
2022/07/27 04:58:18;;;;;;;7.20;4.22;;;17.80;1.00;;;;;;7366219;19;20025;-69
2022/07/27 05:00:48;;;;;;;5.82;4.10;;;17.80;1.00;;;;;;7364227;19;20070;-68
2022/07/27 05:03:18;;;;;;;5.70;3.92;;;17.80;1.00;;;;;;7364848;19;20138;-69
2022/07/27 05:05:48;;;;;;;4.80;3.85;;;17.90;1.00;;;;;;7380926;19;20025;-69
2022/07/27 05:08:22;;;;;;;4.88;3.75;;;18.00;1.00;;;;;;7365072;19;20011;-68
2022/07/27 05:10:55;;;;;;;7.05;4.07;;;18.00;1.00;;;;;;7361164;19;20030;-69
2022/07/27 05:13:25;;;;;;;5.28;4.30;;;18.00;1.00;;;;;;7364955;19;20500;-68
2022/07/27 05:15:57;;;;;;;5.78;4.07;;;18.10;1.00;;;;;;7360413;19;20045;-69
2022/07/27 05:18:27;;;;;;;12.80;4.43;;;18.00;1.00;;;;;;7365105;19;20014;-68
2022/07/27 05:20:57;;;;;;;5.57;4.15;;;18.20;1.00;;;;;;7384251;19;20745;-70
2022/07/27 05:23:27;;;;;;;6.32;4.07;;;18.20;1.00;;;;;;7362783;19;20010;-69
2022/07/27 05:25:59;;;;;;;5.55;3.90;;;18.30;1.00;;;;;;7360526;19;20101;-69
2022/07/27 05:28:31;;;;;;;6.55;4.03;;;18.30;1.00;;;;;;7366380;19;20010;-69
2022/07/27 05:31:01;;;;;;;5.85;4.00;;;18.30;1.00;;;;;;7361363;19;20018;-69
2022/07/27 05:33:31;;;;;;;9.00;4.28;;;18.30;1.00;;;;;;7361571;19;20390;-70
2022/07/27 05:36:01;;;;;;;6.95;3.92;;;18.20;1.00;;;;;;7385094;19;20017;-68
2022/07/27 05:38:39;;;;;;;5.78;4.40;;;18.20;1.00;;;;;;7371057;19;20010;-68
2022/07/27 05:41:12;;;;;;;6.05;4.00;;;18.30;1.00;;;;;;7367639;19;20013;-68
2022/07/27 05:43:41;;;;;;;5.07;4.22;;;18.20;1.00;;;;;;7367929;19;20130;-68
2022/07/27 05:46:11;;;;;;;4.95;4.30;;;18.30;1.00;;;;;;7368026;19;20108;-69
2022/07/27 05:48:41;;;;;;;5.55;4.57;;;18.40;1.00;;;;;;7370273;19;20016;-68
2022/07/27 05:51:11;;;;;;;5.68;4.18;;;18.50;1.00;;;;;;7388405;19;20098;-69
2022/07/27 05:53:41;;;;;;;6.53;3.75;;;18.40;1.00;;;;;;7367002;19;20466;-69
2022/07/27 05:56:14;;;;;;;4.60;3.85;;;18.50;1.00;;;;;;7367115;19;20002;-68
2022/07/27 05:58:44;;;;;;;4.65;3.85;;;18.40;1.00;;;;;;7370989;19;20537;-70
2022/07/27 06:01:13;;;;;;;5.45;3.88;;;18.50;1.00;;;;;;7368450;19;20018;-68
2022/07/27 06:03:43;;;;;;;4.30;3.90;;;18.40;1.00;;;;;;7366764;19;20038;-69
2022/07/27 06:08:57;;;;;;;6.50;3.92;;;18.40;1.00;;;;;;7393841;19;20010;-69
2022/07/27 06:11:29;;;;;;;4.40;4.00;;;18.70;1.00;;;;;;7365704;19;20512;-69
2022/07/27 06:13:59;;;;;;;4.03;3.63;;;18.80;1.00;;;;;;7365562;19;20010;-69
2022/07/27 06:16:29;;;;;;;7.32;3.78;;;18.90;1.00;;;;;;7368534;19;20075;-69
2022/07/27 06:18:59;;;;;;;6.60;4.00;;;19.20;1.00;;;;;;7370636;19;20350;-69
2022/07/27 06:21:30;;;;;;;5.18;4.10;;;18.90;1.00;;;;;;7367575;19;20010;-68
2022/07/27 06:24:00;;;;;;;5.20;3.80;;;19.00;1.00;;;;;;7386988;19;20111;-69
2022/07/27 06:26:33;;;;;;;5.72;3.90;;;18.90;1.00;;;;;;7367983;19;20036;-69
2022/07/27 06:29:02;;;;;;;4.13;3.72;;;18.70;1.00;;;;;;7369925;19;20009;-69
2022/07/27 06:31:39;;;;;;;5.03;4.07;;;18.80;1.00;;;;;;7367032;19;20027;-69
2022/07/27 06:34:11;;;;;;;5.35;3.88;;;18.80;1.00;;;;;;7364012;19;20080;-70
2022/07/27 06:36:44;;;;;;;4.05;3.60;;;18.90;1.00;;;;;;7367932;19;20134;-69
2022/07/27 06:39:19;;;;;;;4.55;3.95;;;18.80;1.00;;;;;;7379729;19;20027;-70
2022/07/27 06:41:51;;;;;;;6.63;4.00;;;19.20;1.00;;;;;;7388153;19;20097;-69
2022/07/27 06:44:26;;;;;;;5.13;4.30;;;19.20;1.00;;;;;;7362568;19;20013;-69
2022/07/27 06:46:56;;;;;;;4.32;3.80;;;19.20;1.00;;;;;;7364962;19;20014;-70
2022/07/27 06:49:26;;;;;;;3.95;3.58;;;19.20;1.00;;;;;;7369101;19;20085;-68
2022/07/27 06:51:56;;;;;;;6.75;4.13;;;19.20;1.00;;;;;;7364515;19;20010;-71
2022/07/27 06:54:26;;;;;;;4.97;3.53;;;19.20;1.00;;;;;;7362674;19;20096;-69
2022/07/27 06:56:59;;;;;;;4.50;4.03;;;19.20;1.00;;;;;;7389571;19;20035;-69
2022/07/27 06:59:30;;;;;;;9.40;4.22;;;19.20;1.00;;;;;;7369556;19;20085;-69
2022/07/27 07:02:12;;;;;;;6.18;3.75;;;19.30;1.00;;;;;;7365645;19;20062;-69
2022/07/27 07:04:42;;;;;;;5.65;3.58;;;19.30;1.00;;;;;;7363231;19;20002;-69
2022/07/27 07:07:12;;;;;;;4.65;3.53;;;19.40;1.00;;;;;;7367698;19;20094;-69
2022/07/27 07:09:43;;;;;;;4.32;3.80;;;19.30;1.00;;;;;;7369787;19;20482;-71
2022/07/27 07:12:17;;;;;;;4.70;4.03;;;19.50;1.00;;;;;;7382455;19;19998;-71
2022/07/27 07:14:47;;;;;;;5.78;3.65;;;19.70;1.00;;;;;;7390597;19;20098;-70
2022/07/27 07:17:17;;;;;;;5.13;3.92;;;19.80;1.00;;;;;;7362859;19;20010;-68
2022/07/27 07:19:48;;;;;;;8.68;3.80;;;19.70;1.00;;;;;;7368036;19;20010;-69
2022/07/27 07:22:18;;;;;;;6.35;3.60;;;20.10;1.00;;;;;;7364740;19;20134;-69
2022/07/27 07:24:48;;;;;;;6.57;3.80;;;20.00;1.00;;;;;;7369032;19;20435;-69
2022/07/27 07:27:22;;;;;;;5.13;4.05;;;19.90;1.00;;;;;;7360454;19;20073;-70
2022/07/27 07:29:52;;;;;;;4.20;3.80;;;20.00;1.00;;;;;;7389161;19;20634;-69
2022/07/27 07:32:23;;;;;;;5.13;3.70;;;19.90;1.00;;;;;;7362353;19;20007;-68
2022/07/27 07:35:00;;;;;;;5.15;3.47;;;20.00;1.00;;;;;;7365950;19;20006;-68
2022/07/27 07:37:31;;;;;;;3.65;3.35;;;20.40;1.00;;;;;;7364149;19;20472;-69
2022/07/27 07:40:03;;;;;;;6.35;3.75;;;20.40;1.00;;;;;;7367900;19;20007;-69
2022/07/27 07:42:58;;;;;;;5.07;3.20;;;20.40;1.00;;;;;;7365061;19;20021;-68
2022/07/27 07:45:30;;;;;;;4.50;3.55;;;20.20;1.00;;;;;;7362909;19;20019;-68
2022/07/27 07:48:00;;;;;;;7.45;3.45;;;20.70;1.00;;;;;;7389415;19;20031;-69
2022/07/27 07:50:30;;;;;;;4.53;3.92;;;20.80;1.00;;;;;;7366698;19;20007;-68
2022/07/27 07:53:00;;;;;;;6.00;3.35;;;20.80;1.00;;;;;;7363143;19;20056;-70
2022/07/27 07:55:31;;;;;;;4.00;3.45;;;20.70;1.00;;;;;;7362053;19;20505;-68
2022/07/27 07:58:05;;;;;;;6.97;3.67;;;20.70;1.00;;;;;;7366489;19;20006;-70
2022/07/27 08:00:35;;;;;;;4.43;3.70;;;20.70;1.00;;;;;;7367266;19;20014;-69
2022/07/27 08:03:09;;;;;;;5.30;3.47;;;20.80;1.00;;;;;;7386830;19;20081;-70
2022/07/27 08:05:42;;;;;;;5.38;3.35;;;20.70;1.00;;;;;;7364276;19;20363;-70
2022/07/27 08:10:58;;;;;;;6.00;3.78;;;21.10;1.00;;;;;;7363520;19;20009;-71
2022/07/27 08:13:30;;;;;;;;;;;20.80;1.00;;;;;;7367241;19;20010;-70
2022/07/27 08:16:05;;;;;;;4.05;3.22;;;21.10;1.00;;;;;;7361301;19;19911;-70
2022/07/27 08:18:35;;;;;;;7.35;3.47;;;21.30;1.00;;;;;;7367549;19;20011;-69
2022/07/27 08:21:08;;;;;;;4.78;3.25;;;21.10;1.00;;;;;;7383039;19;20018;-69
2022/07/27 08:23:44;;;;;;;5.70;3.53;;;20.90;1.00;;;;;;7366107;19;20730;-68
2022/07/27 08:26:14;;;;;;;4.25;3.30;;;21.10;1.00;;;;;;7360282;19;20010;-69
2022/07/27 08:28:48;;;;;;;5.22;3.33;;;20.90;1.00;;;;;;7365834;19;20006;-70
2022/07/27 08:31:20;;;;;;;4.88;3.47;;;21.10;1.00;;;;;;7362204;19;20106;-69
2022/07/27 08:34:12;;;;;;;4.25;3.53;;;21.60;1.00;;;;;;7361468;19;20030;-68
2022/07/27 08:36:42;;;;;;;5.55;4.75;;;21.10;1.00;;;;;;7357895;19;20024;-67
2022/07/27 08:39:15;;;;;;;4.03;3.25;;;21.10;1.00;;;;;;7387795;19;20014;-70
2022/07/27 08:42:09;;;;;;;7.07;3.63;;;21.70;1.00;;;;;;7386587;19;20011;-70
2022/07/27 08:44:48;;;;;;;;;;;21.80;1.00;;;;;;7366051;19;20016;-69
2022/07/27 08:47:19;;;;;;;6.40;3.58;;;21.60;1.00;;;;;;7359195;19;19982;-68
2022/07/27 08:49:49;;;;;;;4.43;3.50;;;21.60;1.00;;;;;;7363815;19;20043;-69
2022/07/27 08:52:21;;;;;;;4.35;3.30;;;21.40;1.00;;;;;;7359507;19;20014;-68
2022/07/27 08:54:51;;;;;;;3.53;3.22;;;21.70;1.00;;;;;;7363908;19;20010;-68
2022/07/27 08:57:22;;;;;;;5.07;3.40;;;21.80;1.00;;;;;;7357432;19;20011;-69
2022/07/27 08:59:57;;;;;;;4.43;3.50;;;21.70;1.00;;;;;;7386763;19;20022;-69
2022/07/27 09:02:28;;;;;;;4.38;3.97;;;21.80;1.00;;;;;;7359681;19;20014;-67
2022/07/27 09:04:59;;;;;;;4.65;3.72;;;21.60;1.00;;;;;;7363410;19;20009;-69
2022/07/27 09:07:30;;;;;;;4.13;3.53;;;21.60;1.00;;;;;;7359946;19;20014;-68
2022/07/27 09:10:01;;;;;;;4.25;3.67;;;21.50;1.00;;;;;;7364590;19;20013;-69
2022/07/27 09:12:31;;;;;;;3.78;3.47;;;21.90;1.00;;;;;;7365343;19;20010;-68
2022/07/27 09:15:11;;;;;;;5.45;3.83;;;21.90;1.00;;;;;;7391583;19;20082;-69
2022/07/27 09:17:43;;;;;;;4.38;3.80;;;21.80;1.00;;;;;;7367856;19;20415;-69
2022/07/27 09:20:20;;;;;;;3.53;3.22;;;21.80;1.00;;;;;;7369388;19;20054;-68
2022/07/27 09:22:52;;;;;;;4.75;3.40;;;22.40;1.00;;;;;;7366601;19;20010;-68
2022/07/27 09:25:24;;;;;;;4.63;3.97;;;22.30;1.00;;;;;;7366412;19;20026;-68
2022/07/27 09:28:14;;;;;;;6.28;3.75;;;21.80;1.00;;;;;;7371034;19;20013;-68
2022/07/27 09:30:47;;;;;;;6.85;3.45;;;21.70;1.00;;;;;;7371929;19;20477;-81
2022/07/27 09:33:17;;;;;;;5.38;3.67;;;22.50;1.00;;;;;;7368529;19;20529;-66
2022/07/27 09:35:59;;;;;;;5.63;3.00;;;22.00;1.00;;;;;;7387834;19;20762;-67
2022/07/27 09:38:29;;;;;;;3.95;3.50;;;22.10;1.00;;;;;;7371940;19;20021;-66
2022/07/27 09:41:00;;;;;;;7.97;3.65;;;22.00;1.00;;;;;;7368610;19;20086;-66
2022/07/27 09:43:32;;;;;;;5.65;3.70;;;22.40;1.00;;;;;;7370734;19;20007;-65
2022/07/27 09:46:35;;;;;;;6.53;3.60;;;22.60;1.00;;;;;;7365211;19;20013;-67
2022/07/27 09:49:06;;;;;;;5.20;3.53;;;22.90;1.00;;;;;;7371971;19;20042;-67
2022/07/27 09:51:46;;;;;;;7.80;3.58;;;22.80;1.00;;;;;;7372919;19;20010;-65
2022/07/27 09:54:45;;;;;;;6.25;3.70;;;22.90;1.00;;;;;;7373569;19;20006;-65
2022/07/27 09:57:17;;;;;;;5.05;3.38;;;23.10;1.00;;;;;;7371221;19;20039;-65
2022/07/27 09:59:47;;;;;;;6.53;3.78;;;23.40;1.00;;;;;;7394901;19;20432;-67
2022/07/27 10:02:20;;;;;;;4.30;3.30;;;23.70;1.00;;;;;;7372162;19;20462;-66
2022/07/27 10:04:50;;;;;;;4.57;3.60;;;24.50;1.00;;;;;;7372041;19;20017;-66
2022/07/27 10:07:21;;;;;;;5.40;3.22;;;24.30;1.00;;;;;;7370730;19;20034;-68
2022/07/27 10:09:51;;;;;;;4.55;3.45;;;23.80;1.00;;;;;;7392059;19;20035;-67
2022/07/27 10:12:21;;;;;;;4.05;3.40;;;23.80;1.00;;;;;;7395214;19;20010;-68
2022/07/27 10:14:52;;;;;;;3.53;3.22;;;23.90;1.00;;;;;;7394174;19;20545;-68
2022/07/27 10:17:25;;;;;;;3.80;3.00;;;24.10;1.00;;;;;;7310090;19;20029;-68
2022/07/27 10:19:57;;;;;;;6.85;3.08;;;23.90;1.00;;;;;;7369586;19;20145;-69
2022/07/27 10:22:52;;;;;;;10.75;2.75;;;24.30;1.00;;;;;;7369342;19;20014;-68
2022/07/27 10:25:23;;;;;;;4.55;2.92;;;23.90;1.00;;;;;;7368514;19;20074;-69
2022/07/27 10:28:12;;;;;;;3.90;2.80;;;23.90;1.00;;;;;;7386511;19;20465;-69
2022/07/27 10:30:42;;;;;;;5.10;2.80;;;23.90;1.00;;;;;;7368398;19;20470;-68
2022/07/27 10:33:39;;;;;;;4.93;2.95;;;24.60;1.00;;;;;;7367569;19;20047;-68
2022/07/27 10:36:18;;;;;;;3.10;2.80;;;25.10;1.00;;;;;;7362759;19;20022;-70
2022/07/27 10:38:55;;;;;;;3.70;2.92;;;25.30;1.00;;;;;;7367889;19;20050;-68
2022/07/27 10:41:26;;;;;;;;;;;25.10;1.00;;;;;;7369178;19;20055;-68
2022/07/27 10:44:28;;;;;;;3.65;2.70;;;25.10;1.00;;;;;;7368684;19;20050;-68
2022/07/27 10:47:00;;;;;;;2.80;2.42;;;24.40;1.00;;;;;;7361280;19;20013;-69
2022/07/27 10:49:34;;;;;;;7.20;3.55;;;24.20;1.00;;;;;;7368872;19;20039;-69
2022/07/27 10:52:41;;;;;;;4.03;2.20;;;24.90;1.00;;;;;;7368842;19;20518;-68
2022/07/27 10:55:43;;;;;;;5.03;2.35;;;24.20;1.00;;;;;;7369026;19;20006;-68
2022/07/27 10:58:43;;;;;;;2.72;2.28;;;24.50;1.00;;;;;;7366741;19;20014;-69
2022/07/27 11:01:14;;;;;;;2.72;2.53;;;25.00;1.00;;;;;;7368390;19;20006;-70
2022/07/27 11:03:51;;;;;;;3.72;2.70;;;24.50;1.00;;;;;;7390136;19;20973;-70
2022/07/27 11:06:31;;;;;;;3.60;2.63;;;25.60;1.00;;;;;;7360106;19;20038;-69
2022/07/27 11:09:24;;;;;;;2.95;2.55;;;26.50;1.00;;;;;;7366828;19;20027;-69
2022/07/27 11:12:15;;;;;;;3.85;2.22;;;26.80;1.00;;;;;;7368471;19;20007;-69
2022/07/27 11:14:46;;;;;;;3.28;2.15;;;25.70;1.00;;;;;;7367800;19;20011;-69
2022/07/27 11:17:18;;;;;;;3.15;1.90;;;25.30;1.00;;;;;;7361131;19;20082;-68
2022/07/27 11:20:09;;;;;;;4.43;1.98;;;24.80;1.00;;;;;;7367545;19;20026;-68
2022/07/27 11:22:44;;;;;;;;;;;24.30;1.00;;;;;;7366952;19;20499;-68
2022/07/27 11:25:34;;;;;;;3.45;1.88;;;24.10;1.00;;;;;;7363389;19;19926;-69
2022/07/27 11:28:08;;;;;;;2.22;1.67;;;23.90;1.00;;;;;;7363594;19;20070;-66
2022/07/27 11:30:38;;;;;;;2.75;1.83;;;23.90;1.00;;;;;;7386406;19;20045;-69
2022/07/27 11:33:08;;;;;;;2.20;1.90;;;24.50;1.00;;;;;;7362066;19;20010;-69
2022/07/27 11:35:38;;;;;;;3.83;1.90;;;24.30;1.00;;;;;;7352174;19;20412;-68
2022/07/27 11:38:11;;;;;;;2.13;1.80;;;24.70;1.00;;;;;;7362300;19;20014;-68
2022/07/27 11:40:45;;;;;;;3.95;1.58;;;24.90;1.00;;;;;;7365130;19;20011;-68
2022/07/27 11:43:40;;;;;;;3.65;1.90;;;25.00;1.00;;;;;;7366205;19;20015;-67
2022/07/27 11:46:19;;;;;;;1.55;1.42;;;24.40;1.00;;;;;;7358527;19;20014;-66
2022/07/27 11:48:51;;;;;;;1.30;1.20;;;24.70;1.00;;;;;;7388381;19;20014;-69
2022/07/27 11:51:39;;;;;;;1.55;1.20;;;25.00;1.00;;;;;;7368099;19;20402;-68
2022/07/27 11:54:14;;;;;;;2.17;1.50;;;24.90;1.00;;;;;;7365419;19;20490;-68
2022/07/27 11:56:47;;;;;;;1.60;1.50;;;25.40;1.00;;;;;;7360841;19;20018;-69
2022/07/27 11:59:19;;;;;;;2.13;1.38;;;25.40;1.00;;;;;;7366376;19;20034;-68
2022/07/27 12:01:51;;;;;;;1.88;1.60;;;25.00;1.00;;;;;;7366330;19;20020;-68
2022/07/27 12:04:27;;;;;;;2.50;1.58;;;25.00;1.00;;;;;;7365700;19;20098;-68
2022/07/27 12:07:02;;;;;;;3.03;1.42;;;24.70;1.00;;;;;;7378558;19;20056;-68
2022/07/27 12:09:38;;;;;;;3.45;1.50;;;24.60;1.00;;;;;;7363694;19;20074;-70
2022/07/27 12:12:13;;;;;;;1.58;1.48;;;25.40;1.00;;;;;;7364266;19;20011;-69
2022/07/27 12:14:45;;;;;;;3.00;1.88;;;25.10;1.00;;;;;;7363159;19;20099;-70
2022/07/27 12:17:21;;;;;;;2.00;1.52;;;25.20;1.00;;;;;;7356136;19;20462;-70
2022/07/27 12:20:04;;;;;;;2.78;1.38;;;25.30;1.00;;;;;;7363294;19;20015;-70
2022/07/27 12:22:37;;;;;;;1.45;1.30;;;25.70;1.00;;;;;;7364755;19;20014;-69
2022/07/27 12:25:13;;;;;;;1.50;1.40;;;25.70;1.00;;;;;;7362141;19;20077;-69
2022/07/27 12:27:56;;;;;;;3.85;1.70;;;25.40;1.00;;;;;;7374155;19;20038;-68
2022/07/27 12:30:34;;;;;;;3.08;1.60;;;24.50;1.00;;;;;;7363556;19;20078;-69
2022/07/27 12:33:06;;;;;;;5.03;1.30;;;25.20;1.00;;;;;;7361401;19;20070;-69
2022/07/27 12:35:45;;;;;;;2.70;1.50;;;25.70;1.00;;;;;;7361749;19;20345;-67
2022/07/27 12:38:15;;;;;;;2.50;1.67;;;25.60;1.00;;;;;;7358848;19;20026;-68
2022/07/27 12:40:50;;;;;;;4.00;1.40;;;25.40;1.00;;;;;;7362351;19;20129;-67
2022/07/27 12:43:28;;;;;;;2.28;1.35;;;25.00;1.00;;;;;;7364069;19;20094;-68
2022/07/27 12:45:57;;;;;;;2.05;1.70;;;25.70;1.00;;;;;;7380917;19;20021;-66
2022/07/27 12:48:40;;;;;;;2.30;1.60;;;25.90;1.00;;;;;;7361791;19;20547;-66
2022/07/27 12:51:11;;;;;;;3.60;1.55;;;26.00;1.00;;;;;;7363112;19;20042;-67
2022/07/27 12:53:42;;;;;;;3.42;1.70;;;25.70;1.00;;;;;;7365131;19;20006;-67
2022/07/27 12:56:14;;;;;;;3.20;1.40;;;25.70;1.00;;;;;;7358934;19;20088;-68
2022/07/27 12:59:02;;;;;;;3.13;1.42;;;26.10;1.00;;;;;;7364732;19;20037;-68
2022/07/27 13:01:32;;;;;;;3.88;1.65;;;26.50;1.00;;;;;;7365286;19;20026;-70
2022/07/27 13:04:04;;;;;;;2.25;1.50;;;26.50;1.00;;;;;;7364965;19;20561;-70
2022/07/27 13:06:34;;;;;;;2.85;1.55;;;26.10;1.00;;;;;;7378175;19;20074;-67
2022/07/27 13:09:04;;;;;;;2.33;1.48;;;25.80;1.00;;;;;;7363173;19;20122;-69
2022/07/27 13:11:37;;;;;;;2.83;1.60;;;26.30;1.00;;;;;;7363872;19;20017;-69
2022/07/27 13:14:07;;;;;;;2.13;1.33;;;25.70;1.00;;;;;;7365071;19;20006;-69
2022/07/27 13:16:37;;;;;;;3.03;1.55;;;25.20;1.00;;;;;;7357685;19;20010;-70
2022/07/27 13:19:07;;;;;;;2.40;1.40;;;25.70;1.00;;;;;;7365504;19;20023;-70
2022/07/27 13:21:38;;;;;;;3.00;1.65;;;25.30;1.00;;;;;;7385618;19;20081;-69
2022/07/27 13:24:10;;;;;;;2.15;1.50;;;24.90;1.00;;;;;;7363113;19;20011;-65
2022/07/27 13:26:43;;;;;;;1.85;1.60;;;24.60;1.00;;;;;;7357590;19;20006;-65
2022/07/27 13:29:13;;;;;;;2.75;1.88;;;24.70;1.00;;;;;;7364530;19;20025;-65
2022/07/27 13:31:43;;;;;;;1.58;1.35;;;24.80;1.00;;;;;;7363738;19;20423;-66
2022/07/27 13:34:23;;;;;;;2.30;1.58;;;25.00;1.00;;;;;;7364147;19;20019;-67
2022/07/27 13:36:53;;;;;;;2.17;1.50;;;25.00;1.00;;;;;;7377540;19;20028;-69
2022/07/27 13:39:23;;;;;;;2.97;1.80;;;24.60;1.00;;;;;;7363809;19;20021;-68